Terminal Aerodrome Forecast
Issued by NWS Duluth, MN

Home | Current Version | Previous Version | Text Only | Print | Product List | Glossary On
Versions: 1 2 3 4 5 6 7 8 9 10 11 12 13 14 15 16 17 18 19 20 21 22 23 24 25 26
655
FTUS43 KDLH 100753 AAA
TAFINL
TAF AMD
KINL 100753Z 1008/1106 36005KT 6SM HZ SCT003
      TEMPO 1008/1011 2SM HZ BKN003
     FM101300 04003KT P6SM SCT005
     FM101500 04003KT P6SM SCT015=

USA.gov is the U.S. government's official web portal to all federal, state and local government web resources and services.